Time;durP1;ratioP1;P1;durP2;ratioP2;P2;SDS_P1;SDS_P2;PMS_P1;PMS_P2;Temp;Humidity;BMP_temperature;BMP_pressure;BME280_temperature;BME280_humidity;BME280_pressure;Samples;Min_cycle;Max_cycle;Signal;HPM_P1;HPM_P2
2024/04/17 00:01:25;;;;;;;8.07;2.20;;;9.50;99.90;;;;;;5491421;26;20223;-58
2024/04/17 00:03:55;;;;;;;11.73;3.13;;;9.50;99.90;;;;;;5491497;26;20508;-58
2024/04/17 00:06:21;;;;;;;10.90;2.80;;;9.50;99.90;;;;;;5491251;26;20451;-58
2024/04/17 00:08:49;;;;;;;14.33;2.90;;;9.40;99.90;;;;;;5491559;26;20545;-58
2024/04/17 00:11:15;;;;;;;13.13;3.00;;;9.40;99.90;;;;;;5491181;26;20230;-57
2024/04/17 00:13:44;;;;;;;13.07;2.70;;;9.40;99.90;;;;;;5491484;26;20569;-58
2024/04/17 00:16:10;;;;;;;10.30;2.90;;;9.30;99.90;;;;;;5491657;26;20226;-58
2024/04/17 00:18:41;;;;;;;10.27;3.43;;;9.30;99.90;;;;;;5491165;26;20798;-58
2024/04/17 00:21:07;;;;;;;20.63;3.07;;;9.20;99.90;;;;;;5491325;26;20755;-58
2024/04/17 00:23:35;;;;;;;14.40;3.40;;;9.20;99.90;;;;;;5491109;26;20443;-58
2024/04/17 00:26:01;;;;;;;13.20;2.77;;;9.20;99.90;;;;;;5491037;26;20488;-58
2024/04/17 00:28:29;;;;;;;9.37;2.87;;;9.10;99.90;;;;;;5491119;26;20448;-59
2024/04/17 00:30:55;;;;;;;11.50;3.70;;;9.10;99.90;;;;;;5490960;26;20230;-58
2024/04/17 00:33:23;;;;;;;9.00;2.50;;;9.10;99.90;;;;;;5491043;26;20451;-58
2024/04/17 00:35:52;;;;;;;8.57;3.20;;;9.00;99.90;;;;;;5491098;26;20214;-59
2024/04/17 00:38:20;;;;;;;10.33;2.40;;;9.00;99.90;;;;;;5490867;26;20455;-57
2024/04/17 00:40:46;;;;;;;10.23;2.63;;;8.90;99.90;;;;;;5490595;26;20463;-58
2024/04/17 00:43:15;;;;;;;9.87;2.93;;;8.90;99.90;;;;;;5491488;26;20495;-58
2024/04/17 00:45:43;;;;;;;6.87;3.40;;;8.90;99.90;;;;;;5490867;26;20288;-58
2024/04/17 00:48:14;;;;;;;6.90;3.10;;;8.90;99.90;;;;;;5490742;26;20515;-58
2024/04/17 00:50:42;;;;;;;10.73;3.00;;;8.80;99.90;;;;;;5490681;26;20471;-58
2024/04/17 00:53:15;;;;;;;13.00;5.10;;;8.80;99.90;;;;;;5490947;26;20451;-58
2024/04/17 00:55:41;;;;;;;13.37;4.20;;;8.80;99.90;;;;;;5490716;26;20451;-58
2024/04/17 00:58:11;;;;;;;13.23;3.00;;;8.80;99.90;;;;;;5490484;26;20459;-58
2024/04/17 01:00:37;;;;;;;13.47;3.30;;;8.70;99.90;;;;;;5490534;26;20950;-58
2024/04/17 01:03:06;;;;;;;14.40;3.00;;;8.70;99.90;;;;;;5490531;26;20805;-58
2024/04/17 01:05:33;;;;;;;8.50;3.17;;;8.60;99.90;;;;;;5490565;26;20488;-59
2024/04/17 01:08:02;;;;;;;7.17;2.60;;;8.60;99.90;;;;;;5490794;26;20514;-59
2024/04/17 01:10:30;;;;;;;12.97;3.97;;;8.60;99.90;;;;;;5490444;26;20575;-59
2024/04/17 01:12:59;;;;;;;11.37;4.70;;;8.60;99.90;;;;;;5490500;26;20805;-58
2024/04/17 01:15:27;;;;;;;11.10;5.30;;;8.60;99.90;;;;;;5490437;26;20464;-57
2024/04/17 01:17:57;;;;;;;9.70;5.20;;;8.60;99.90;;;;;;5490478;26;20530;-58
2024/04/17 01:20:23;;;;;;;16.13;5.83;;;8.60;99.90;;;;;;5490439;26;21075;-58
2024/04/17 01:22:51;;;;;;;8.90;3.40;;;8.60;99.90;;;;;;5490313;26;20448;-57
2024/04/17 01:25:20;;;;;;;12.03;3.80;;;8.60;99.90;;;;;;5488973;26;20599;-58
2024/04/17 01:27:48;;;;;;;11.40;4.20;;;8.60;99.90;;;;;;5490587;26;20440;-58
2024/04/17 01:30:14;;;;;;;12.93;5.03;;;8.60;99.90;;;;;;5490197;26;20452;-57
2024/04/17 01:32:45;;;;;;;7.50;3.73;;;8.50;99.90;;;;;;5490451;26;20503;-57
2024/04/17 01:35:10;;;;;;;10.43;4.70;;;8.50;99.90;;;;;;5490467;26;20735;-58
2024/04/17 01:37:39;;;;;;;13.00;4.50;;;8.50;99.90;;;;;;5490407;26;20452;-58
2024/04/17 01:40:06;;;;;;;11.73;4.90;;;8.50;99.90;;;;;;5490194;26;20222;-57
2024/04/17 01:42:37;;;;;;;14.17;5.57;;;8.50;99.90;;;;;;5490394;26;20968;-58
2024/04/17 01:45:03;;;;;;;13.10;6.03;;;8.50;99.90;;;;;;5489903;26;20451;-57
2024/04/17 01:47:31;;;;;;;8.03;5.20;;;8.50;99.90;;;;;;5489798;26;20509;-58
2024/04/17 01:49:57;;;;;;;10.07;4.20;;;8.40;99.90;;;;;;5490059;26;21008;-58
2024/04/17 01:52:25;;;;;;;19.67;4.97;;;8.40;99.90;;;;;;5490009;26;20496;-58
2024/04/17 01:54:51;;;;;;;6.30;2.70;;;8.40;99.90;;;;;;5490037;26;20215;-59
2024/04/17 01:57:19;;;;;;;11.87;2.93;;;8.40;99.90;;;;;;5489871;26;20854;-58
2024/04/17 01:59:48;;;;;;;10.13;3.60;;;8.40;99.90;;;;;;5489789;26;20268;-58
2024/04/17 02:02:16;;;;;;;9.40;2.80;;;8.30;99.90;;;;;;5489742;26;20786;-58
2024/04/17 02:04:42;;;;;;;11.73;3.87;;;8.30;99.90;;;;;;5489711;26;20440;-59
2024/04/17 02:07:10;;;;;;;9.40;3.43;;;8.30;99.90;;;;;;5489403;26;21069;-59
2024/04/17 02:09:36;;;;;;;7.03;3.40;;;8.30;99.90;;;;;;5489339;26;20234;-59
2024/04/17 02:12:05;;;;;;;12.60;3.30;;;8.20;99.90;;;;;;5489159;26;20856;-59
2024/04/17 02:14:30;;;;;;;9.47;3.33;;;8.10;99.90;;;;;;5489619;26;20210;-59
2024/04/17 02:17:01;;;;;;;6.90;2.90;;;8.10;99.90;;;;;;5488929;26;20494;-58
2024/04/17 02:19:27;;;;;;;8.43;2.93;;;8.10;99.90;;;;;;5488818;26;20256;-58
2024/04/17 02:21:55;;;;;;;5.30;2.63;;;8.10;99.90;;;;;;5489221;26;20812;-59
2024/04/17 02:24:21;;;;;;;7.10;2.70;;;8.10;99.90;;;;;;5489216;26;20210;-59
2024/04/17 02:26:50;;;;;;;5.27;2.90;;;8.10;99.90;;;;;;5488837;26;20447;-59
2024/04/17 02:29:16;;;;;;;14.53;2.83;;;8.00;99.90;;;;;;5488922;26;20467;-59
2024/04/17 02:31:44;;;;;;;7.17;3.27;;;8.00;99.90;;;;;;5488705;26;20500;-59
2024/04/17 02:34:13;;;;;;;6.13;2.90;;;8.00;99.90;;;;;;5488904;26;20692;-59
2024/04/17 02:36:42;;;;;;;14.20;3.40;;;8.00;99.90;;;;;;5490524;26;20507;-59
2024/04/17 02:39:07;;;;;;;10.20;3.40;;;7.90;99.90;;;;;;5492349;26;20467;-59
2024/04/17 02:41:36;;;;;;;10.73;3.17;;;7.90;99.90;;;;;;5492300;26;20499;-59
2024/04/17 02:44:01;;;;;;;11.50;3.57;;;7.90;99.90;;;;;;5492275;26;20210;-58
2024/04/17 02:46:30;;;;;;;9.57;2.87;;;7.90;99.90;;;;;;5492125;26;20858;-58
2024/04/17 02:48:55;;;;;;;11.83;3.27;;;7.90;99.90;;;;;;5492120;26;20211;-59
2024/04/17 02:51:27;;;;;;;7.70;3.50;;;7.90;99.90;;;;;;5492561;26;20795;-59
2024/04/17 02:53:52;;;;;;;8.07;3.10;;;7.90;99.90;;;;;;5492595;26;20233;-58
2024/04/17 02:56:21;;;;;;;12.07;3.57;;;7.90;99.90;;;;;;5492403;26;20443;-59
2024/04/17 02:58:47;;;;;;;6.90;3.17;;;7.80;99.90;;;;;;5492385;26;20240;-58
2024/04/17 03:01:15;;;;;;;14.13;2.90;;;7.80;99.90;;;;;;5492532;26;20447;-59
2024/04/17 03:03:41;;;;;;;10.40;3.50;;;7.70;99.90;;;;;;5492679;26;20588;-59
2024/04/17 03:06:10;;;;;;;9.77;3.33;;;7.70;99.90;;;;;;5492233;26;20451;-59
2024/04/17 03:08:38;;;;;;;10.67;3.23;;;7.70;99.90;;;;;;5492406;26;20451;-58
2024/04/17 03:11:07;;;;;;;7.50;4.17;;;7.70;99.90;;;;;;5492224;26;20516;-58
2024/04/17 03:13:32;;;;;;;15.20;4.17;;;7.70;99.90;;;;;;5492397;26;20495;-59
2024/04/17 03:16:04;;;;;;;5.27;3.20;;;7.70;99.90;;;;;;5492221;26;20448;-59
2024/04/17 03:18:30;;;;;;;13.40;3.10;;;7.60;99.90;;;;;;5492235;26;20211;-58
2024/04/17 03:21:01;;;;;;;12.23;3.37;;;7.60;99.90;;;;;;5492103;26;20511;-59
2024/04/17 03:23:28;;;;;;;11.40;3.93;;;7.60;99.90;;;;;;5491970;26;20226;-58
2024/04/17 03:26:00;;;;;;;7.40;3.47;;;7.60;99.90;;;;;;5491968;26;20451;-58
2024/04/17 03:28:26;;;;;;;6.80;3.23;;;7.50;99.90;;;;;;5492320;26;20459;-58
2024/04/17 03:30:54;;;;;;;14.63;4.50;;;7.50;99.90;;;;;;5491920;26;20954;-58
2024/04/17 03:33:20;;;;;;;8.77;3.40;;;7.50;99.90;;;;;;5491969;26;20451;-59
2024/04/17 03:35:56;;;;;;;16.30;3.93;;;7.50;99.90;;;;;;5491919;26;20550;-59
2024/04/17 03:38:25;;;;;;;8.53;3.97;;;7.50;99.90;;;;;;5491881;26;20218;-59
2024/04/17 03:40:53;;;;;;;14.37;3.80;;;7.50;99.90;;;;;;5491710;26;20471;-58
2024/04/17 03:43:24;;;;;;;14.50;4.10;;;7.50;99.90;;;;;;5491763;26;20475;-56
2024/04/17 03:45:53;;;;;;;8.40;3.30;;;7.50;99.90;;;;;;5491655;26;20447;-57
2024/04/17 03:48:21;;;;;;;9.70;3.70;;;7.50;99.90;;;;;;5490531;26;20506;-57
2024/04/17 03:50:47;;;;;;;11.23;4.17;;;7.40;99.90;;;;;;5491635;26;20569;-57
2024/04/17 03:53:15;;;;;;;8.40;2.70;;;7.50;99.90;;;;;;5491477;26;20448;-57
2024/04/17 03:55:41;;;;;;;6.43;3.63;;;7.50;99.90;;;;;;5491705;26;20249;-57
2024/04/17 03:58:10;;;;;;;9.03;4.30;;;7.40;99.90;;;;;;5491508;26;20985;-56
2024/04/17 04:00:39;;;;;;;9.13;3.90;;;7.40;99.90;;;;;;5491393;26;20778;-56
2024/04/17 04:03:08;;;;;;;6.33;3.17;;;7.40;99.90;;;;;;5491529;26;20883;-57
2024/04/17 04:05:33;;;;;;;13.37;4.70;;;7.30;99.90;;;;;;5491234;26;20459;-56
2024/04/17 04:08:02;;;;;;;12.10;4.10;;;7.30;99.90;;;;;;5491303;26;20503;-57
2024/04/17 04:10:28;;;;;;;6.27;3.57;;;7.30;99.90;;;;;;5491468;26;20348;-57
2024/04/17 04:12:58;;;;;;;11.30;4.10;;;7.20;99.90;;;;;;5491310;26;20463;-57
2024/04/17 04:15:23;;;;;;;9.63;4.00;;;7.20;99.90;;;;;;5491307;26;21041;-57
2024/04/17 04:17:55;;;;;;;6.40;4.63;;;7.20;99.90;;;;;;5491401;26;20447;-56
2024/04/17 04:20:20;;;;;;;8.70;3.87;;;7.20;99.90;;;;;;5491387;26;20238;-57
2024/04/17 04:22:49;;;;;;;8.80;5.43;;;7.10;99.90;;;;;;5491170;26;20569;-57
2024/04/17 04:25:15;;;;;;;13.53;6.07;;;7.10;99.90;;;;;;5491018;26;20784;-56
2024/04/17 04:27:44;;;;;;;12.23;5.70;;;7.10;99.90;;;;;;5490993;26;20448;-56
2024/04/17 04:30:10;;;;;;;10.77;5.97;;;7.10;99.90;;;;;;5490876;26;20452;-58
2024/04/17 04:32:39;;;;;;;18.40;6.00;;;7.00;99.90;;;;;;5490964;26;20569;-57
2024/04/17 04:35:07;;;;;;;17.80;6.27;;;7.00;99.90;;;;;;5491071;26;20565;-57
2024/04/17 04:37:36;;;;;;;14.20;5.90;;;7.00;99.90;;;;;;5491110;26;20510;-57
2024/04/17 04:40:02;;;;;;;12.10;6.50;;;7.00;99.90;;;;;;5490813;26;20467;-57
2024/04/17 04:42:30;;;;;;;12.93;5.97;;;7.00;99.90;;;;;;5490886;26;20515;-56
2024/04/17 04:44:56;;;;;;;17.10;6.97;;;7.00;99.90;;;;;;5490949;26;20467;-57
2024/04/17 04:47:24;;;;;;;16.97;7.57;;;7.00;99.90;;;;;;5490878;26;20495;-56
2024/04/17 04:49:50;;;;;;;10.80;6.73;;;7.00;99.90;;;;;;5490929;26;20717;-57
2024/04/17 04:52:22;;;;;;;9.33;7.00;;;7.00;99.90;;;;;;5490771;26;20502;-57
2024/04/17 04:54:47;;;;;;;12.23;7.20;;;7.00;99.90;;;;;;5490890;26;20617;-56
2024/04/17 04:57:19;;;;;;;12.47;6.83;;;7.00;99.90;;;;;;5490868;26;20499;-57
2024/04/17 04:59:45;;;;;;;10.03;7.07;;;7.00;99.90;;;;;;5490480;26;20226;-57
2024/04/17 05:02:14;;;;;;;12.80;7.00;;;6.90;99.90;;;;;;5490748;26;20495;-57
2024/04/17 05:04:40;;;;;;;12.23;6.73;;;6.90;99.90;;;;;;5490711;26;20444;-56
2024/04/17 05:07:09;;;;;;;13.07;6.70;;;6.90;99.90;;;;;;5490417;26;20463;-57
2024/04/17 05:09:37;;;;;;;12.40;7.13;;;6.90;99.90;;;;;;5490534;26;20530;-57
2024/04/17 05:12:06;;;;;;;11.97;6.80;;;6.90;99.90;;;;;;5490648;26;20447;-57
2024/04/17 05:14:32;;;;;;;10.83;6.60;;;6.90;99.90;;;;;;5490626;26;20497;-57
2024/04/17 05:17:00;;;;;;;9.00;6.57;;;6.80;99.90;;;;;;5490525;26;20467;-57
2024/04/17 05:19:26;;;;;;;9.73;6.30;;;6.90;99.90;;;;;;5490783;26;20732;-57
2024/04/17 05:21:54;;;;;;;13.60;6.67;;;6.90;99.90;;;;;;5490942;26;20448;-57
2024/04/17 05:24:20;;;;;;;11.20;7.00;;;6.90;99.90;;;;;;5490583;26;20306;-57
2024/04/17 05:26:51;;;;;;;14.00;8.07;;;7.00;99.90;;;;;;5490418;26;20463;-57
2024/04/17 05:29:17;;;;;;;12.43;7.50;;;7.00;99.90;;;;;;5490313;26;20261;-57
2024/04/17 05:31:48;;;;;;;19.10;8.03;;;7.00;99.90;;;;;;5490109;26;20957;-57
2024/04/17 05:34:14;;;;;;;13.70;8.87;;;7.00;99.90;;;;;;5490431;26;20249;-57
2024/04/17 05:36:42;;;;;;;11.60;7.93;;;7.10;99.90;;;;;;5490240;26;20973;-57
2024/04/17 05:39:08;;;;;;;9.63;7.87;;;7.20;99.90;;;;;;5490161;26;20744;-57
2024/04/17 05:41:36;;;;;;;12.10;8.10;;;7.20;99.90;;;;;;5489939;26;20556;-56
2024/04/17 05:44:05;;;;;;;12.53;7.83;;;7.20;99.90;;;;;;5490036;26;20226;-57
2024/04/17 05:46:33;;;;;;;12.93;7.77;;;7.30;99.90;;;;;;5489603;26;20578;-57
2024/04/17 05:48:59;;;;;;;12.40;7.77;;;7.40;99.90;;;;;;5489991;26;20545;-57
2024/04/17 05:51:28;;;;;;;11.00;8.03;;;7.40;99.90;;;;;;5490359;26;20455;-57
2024/04/17 05:53:54;;;;;;;14.27;7.10;;;7.50;99.90;;;;;;5489937;26;20645;-57
2024/04/17 05:56:22;;;;;;;13.13;6.80;;;7.60;99.90;;;;;;5489870;26;20965;-57
2024/04/17 05:58:48;;;;;;;12.73;6.47;;;7.60;99.90;;;;;;5489848;26;20456;-57
2024/04/17 06:01:19;;;;;;;16.27;6.67;;;7.70;99.90;;;;;;5489596;26;21082;-57
2024/04/17 06:03:45;;;;;;;9.83;6.40;;;7.80;99.90;;;;;;5489729;26;20321;-57
2024/04/17 06:06:13;;;;;;;11.40;7.10;;;8.00;99.90;;;;;;5489528;26;20957;-58
2024/04/17 06:08:39;;;;;;;13.63;6.20;;;8.10;99.90;;;;;;5489726;26;20274;-57
2024/04/17 06:11:08;;;;;;;14.33;6.90;;;8.20;99.90;;;;;;5488107;26;21045;-57
2024/04/17 06:13:33;;;;;;;12.97;7.27;;;8.30;99.90;;;;;;5489473;26;20223;-58
2024/04/17 06:16:02;;;;;;;10.33;6.60;;;8.40;99.90;;;;;;5489442;26;20455;-57
2024/04/17 06:18:30;;;;;;;15.07;6.73;;;8.40;99.90;;;;;;5489492;26;20271;-57
2024/04/17 06:20:59;;;;;;;13.50;6.70;;;8.50;99.90;;;;;;5489643;26;20456;-57
2024/04/17 06:23:25;;;;;;;13.30;7.00;;;8.50;99.90;;;;;;5489355;26;20997;-57
2024/04/17 06:25:53;;;;;;;8.37;5.87;;;8.60;99.90;;;;;;5489192;26;20568;-58
2024/04/17 06:28:22;;;;;;;9.47;4.93;;;8.60;99.90;;;;;;5489281;26;20451;-57
2024/04/17 06:30:50;;;;;;;10.90;5.87;;;8.60;99.90;;;;;;5489244;26;20858;-58
2024/04/17 06:33:16;;;;;;;6.67;4.80;;;8.60;99.90;;;;;;5489186;26;20455;-58
2024/04/17 06:35:47;;;;;;;12.03;4.40;;;8.50;99.90;;;;;;5488948;26;20503;-59
2024/04/17 06:38:13;;;;;;;7.50;4.60;;;8.50;99.90;;;;;;5488785;26;20568;-57
2024/04/17 06:40:41;;;;;;;5.03;3.70;;;8.40;99.90;;;;;;5496443;26;20624;-57
2024/04/17 06:43:08;;;;;;;4.03;2.57;;;8.30;99.90;;;;;;5525783;25;20320;-58
2024/04/17 06:45:37;;;;;;;5.57;2.40;;;8.30;99.90;;;;;;5525682;25;20453;-58
2024/04/17 06:48:04;;;;;;;6.10;3.30;;;8.20;99.90;;;;;;5525865;25;20446;-58
2024/04/17 06:50:32;;;;;;;4.50;2.57;;;8.10;99.90;;;;;;5525378;25;20522;-58
2024/04/17 06:53:01;;;;;;;5.80;1.77;;;8.10;99.90;;;;;;5526084;25;20457;-58
2024/04/17 06:55:29;;;;;;;2.07;1.70;;;8.00;99.90;;;;;;5525743;25;20979;-58
2024/04/17 06:57:55;;;;;;;3.90;2.40;;;8.00;99.90;;;;;;5525707;25;21092;-58
2024/04/17 07:00:24;;;;;;;5.13;1.70;;;8.00;99.90;;;;;;5525521;25;20466;-58
2024/04/17 07:02:49;;;;;;;3.27;1.23;;;8.00;99.90;;;;;;5525515;25;20217;-58
2024/04/17 07:05:18;;;;;;;2.03;1.03;;;8.00;99.90;;;;;;5525379;25;20559;-57
2024/04/17 07:07:44;;;;;;;1.80;1.10;;;8.00;99.90;;;;;;5525175;25;20740;-58
2024/04/17 07:10:15;;;;;;;3.70;1.10;;;7.90;99.90;;;;;;5525363;25;20462;-58
2024/04/17 07:12:41;;;;;;;3.53;1.50;;;7.90;99.90;;;;;;5525426;25;20221;-58
2024/04/17 07:15:10;;;;;;;1.87;1.40;;;7.80;99.90;;;;;;5525075;25;20999;-57
2024/04/17 07:17:37;;;;;;;3.13;1.87;;;7.80;99.90;;;;;;5525146;25;20454;-57
2024/04/17 07:20:05;;;;;;;2.13;1.50;;;7.70;99.90;;;;;;5525153;25;20470;-58
2024/04/17 07:22:32;;;;;;;1.97;1.87;;;7.60;99.90;;;;;;5525049;25;20548;-58
2024/04/17 07:25:00;;;;;;;3.67;2.33;;;7.60;99.90;;;;;;5528875;25;20516;-58
2024/04/17 07:27:29;;;;;;;5.50;2.63;;;7.60;99.90;;;;;;5528761;25;20551;-58
2024/04/17 07:29:57;;;;;;;4.47;2.47;;;7.60;99.90;;;;;;5528781;25;20466;-58
2024/04/17 07:32:23;;;;;;;7.20;2.20;;;7.60;99.90;;;;;;5528720;25;20461;-58
2024/04/17 07:34:53;;;;;;;5.00;2.27;;;7.70;99.90;;;;;;5528819;25;20805;-57
2024/04/17 07:37:19;;;;;;;10.00;2.87;;;7.70;99.90;;;;;;5528756;25;20221;-57
2024/04/17 07:39:47;;;;;;;7.37;2.40;;;7.80;99.90;;;;;;5528436;25;20457;-56
2024/04/17 07:42:13;;;;;;;7.33;2.43;;;7.90;99.90;;;;;;5528505;25;20252;-57
2024/04/17 07:44:44;;;;;;;4.37;1.73;;;8.10;99.90;;;;;;5528575;25;20442;-59
2024/04/17 07:47:10;;;;;;;4.13;1.50;;;8.20;99.90;;;;;;5528380;25;20209;-58
2024/04/17 07:49:38;;;;;;;3.77;1.63;;;8.30;99.90;;;;;;5528557;25;20474;-57
2024/04/17 07:52:05;;;;;;;3.53;1.40;;;8.40;99.90;;;;;;5528527;25;20286;-58
2024/04/17 07:54:33;;;;;;;6.93;1.67;;;8.50;99.90;;;;;;5528438;25;20442;-58
2024/04/17 07:56:59;;;;;;;5.00;1.80;;;8.60;99.90;;;;;;5528544;25;20556;-58
2024/04/17 07:59:27;;;;;;;7.40;2.00;;;8.70;99.90;;;;;;5528464;25;20471;-58
2024/04/17 08:01:56;;;;;;;2.70;1.40;;;8.80;99.90;;;;;;5528228;25;20225;-58
2024/04/17 08:04:24;;;;;;;3.57;1.60;;;8.90;99.90;;;;;;5528533;25;20800;-58
2024/04/17 08:06:50;;;;;;;4.10;2.07;;;9.00;99.90;;;;;;5528000;25;20450;-58
2024/04/17 08:09:19;;;;;;;3.80;2.33;;;9.10;99.90;;;;;;5528150;25;20576;-58
2024/04/17 08:11:44;;;;;;;8.67;3.00;;;9.10;99.90;;;;;;5528320;25;20792;-58
2024/04/17 08:14:13;;;;;;;5.37;2.87;;;9.20;99.90;;;;;;5528625;25;20501;-58
2024/04/17 08:16:39;;;;;;;9.53;2.77;;;9.20;99.90;;;;;;5528030;25;20248;-58
2024/04/17 08:19:10;;;;;;;6.70;3.47;;;9.30;99.90;;;;;;5528057;25;20478;-57
2024/04/17 08:21:35;;;;;;;4.13;3.20;;;9.50;99.90;;;;;;5528057;25;20621;-58
2024/04/17 08:24:04;;;;;;;6.77;2.90;;;9.70;99.90;;;;;;5528022;25;20558;-57
2024/04/17 08:26:30;;;;;;;2.97;2.67;;;9.80;99.90;;;;;;5527850;25;20225;-58
2024/04/17 08:28:58;;;;;;;3.50;3.07;;;9.90;99.90;;;;;;5527912;25;20522;-57
2024/04/17 08:31:26;;;;;;;4.80;2.77;;;10.10;99.90;;;;;;5528099;25;20731;-57
2024/04/17 08:33:55;;;;;;;3.77;3.07;;;10.00;99.90;;;;;;5494705;25;20468;-58
2024/04/17 08:36:23;;;;;;;5.07;2.87;;;10.00;99.90;;;;;;5491057;26;20569;-58
2024/04/17 08:38:55;;;;;;;4.07;3.57;;;10.00;99.90;;;;;;5491041;26;20443;-57
2024/04/17 08:41:23;;;;;;;6.10;3.57;;;10.00;99.90;;;;;;5491073;26;21129;-58
2024/04/17 08:43:53;;;;;;;7.33;4.00;;;9.90;99.90;;;;;;5491058;26;20451;-57
2024/04/17 08:46:19;;;;;;;4.90;4.23;;;9.80;99.90;;;;;;5490696;26;21008;-57
2024/04/17 08:48:49;;;;;;;7.33;4.40;;;9.80;99.90;;;;;;5490959;26;20565;-58
2024/04/17 08:51:16;;;;;;;8.27;4.70;;;9.80;99.90;;;;;;5490588;26;20214;-58
2024/04/17 08:53:48;;;;;;;10.00;5.00;;;9.80;99.90;;;;;;5490889;26;20884;-57
2024/04/17 08:56:15;;;;;;;8.47;5.27;;;9.80;99.90;;;;;;5490871;26;20455;-57
2024/04/17 08:58:47;;;;;;;9.30;5.57;;;9.80;99.90;;;;;;5490911;26;20443;-57
2024/04/17 09:01:17;;;;;;;8.53;5.37;;;9.80;99.90;;;;;;5490875;26;20539;-57
2024/04/17 09:03:46;;;;;;;5.43;4.50;;;9.80;99.90;;;;;;5490756;26;20463;-58
2024/04/17 09:06:13;;;;;;;7.50;5.33;;;9.80;99.90;;;;;;5490491;26;20459;-57
2024/04/17 09:08:43;;;;;;;6.87;5.67;;;9.80;99.90;;;;;;5490691;26;20511;-57
2024/04/17 09:11:12;;;;;;;5.33;3.63;;;10.00;99.90;;;;;;5490738;26;20490;-58
2024/04/17 09:13:40;;;;;;;6.60;3.87;;;10.10;99.90;;;;;;5492688;26;20448;-58
2024/04/17 09:16:06;;;;;;;7.00;3.60;;;10.40;99.90;;;;;;5492476;26;20520;-58
2024/04/17 09:18:37;;;;;;;5.20;4.53;;;10.80;99.90;;;;;;5491096;26;20448;-57
2024/04/17 09:21:03;;;;;;;5.80;3.67;;;11.10;99.90;;;;;;5490400;26;20457;-57
2024/04/17 09:23:32;;;;;;;10.10;3.13;;;11.40;99.30;;;;;;5490282;26;20512;-57
2024/04/17 09:25:58;;;;;;;4.13;2.50;;;11.60;98.80;;;;;;5490229;26;20858;-57
2024/04/17 09:28:29;;;;;;;5.73;3.30;;;11.80;98.30;;;;;;5490295;26;20490;-57
2024/04/17 09:30:55;;;;;;;8.03;3.80;;;11.90;98.00;;;;;;5490285;26;20584;-59
2024/04/17 09:33:23;;;;;;;8.60;4.03;;;11.90;97.70;;;;;;5490263;26;20456;-59
2024/04/17 09:35:49;;;;;;;7.80;3.63;;;11.80;96.80;;;;;;5490361;26;20226;-58
2024/04/17 09:38:18;;;;;;;7.77;3.20;;;11.60;96.40;;;;;;5490357;26;20456;-59
2024/04/17 09:40:45;;;;;;;5.87;3.57;;;11.40;96.80;;;;;;5490107;26;20569;-58
2024/04/17 09:43:24;;;;;;;6.10;3.50;;;11.30;96.30;;;;;;5490222;26;20500;-59
2024/04/17 09:45:59;;;;;;;7.30;3.60;;;11.20;96.80;;;;;;5488718;26;20467;-58
2024/04/17 09:48:29;;;;;;;12.40;4.03;;;11.10;96.90;;;;;;5489956;26;21105;-58
2024/04/17 09:51:00;;;;;;;6.57;3.43;;;11.10;97.80;;;;;;5489987;26;20460;-58
2024/04/17 09:56:17;;;;;;;9.60;4.07;;;11.90;99.60;;;;;;5492654;26;20545;-58
2024/04/17 09:58:46;;;;;;;11.30;3.10;;;13.00;99.90;;;;;;5489949;26;20557;-58
2024/04/17 10:01:19;;;;;;;4.30;2.50;;;14.00;99.90;;;;;;5489779;26;20448;-58
2024/04/17 10:03:47;;;;;;;3.27;2.80;;;14.70;96.50;;;;;;5489550;26;20508;-57
2024/04/17 10:06:17;;;;;;;4.63;2.87;;;15.00;94.40;;;;;;5489744;26;20801;-58
2024/04/17 10:08:44;;;;;;;6.83;2.80;;;15.00;93.60;;;;;;5489847;26;20550;-57
2024/04/17 10:11:13;;;;;;;6.23;2.87;;;14.80;93.20;;;;;;5489443;26;20503;-57
2024/04/17 10:13:41;;;;;;;4.57;1.87;;;14.70;93.10;;;;;;5489639;26;20439;-58
2024/04/17 10:18:58;;;;;;;7.33;2.37;;;14.50;92.50;;;;;;5492232;26;20476;-58
2024/04/17 10:21:24;;;;;;;7.77;1.80;;;14.50;92.10;;;;;;5489440;26;20549;-57
2024/04/17 10:24:02;;;;;;;3.40;1.70;;;14.80;92.20;;;;;;5489714;26;20451;-57
2024/04/17 10:26:42;;;;;;;3.90;1.70;;;15.10;91.70;;;;;;5489329;26;20892;-57
2024/04/17 10:29:17;;;;;;;3.77;2.13;;;15.40;90.80;;;;;;5489157;26;20507;-57
2024/04/17 10:31:57;;;;;;;7.63;2.33;;;15.50;90.30;;;;;;5489175;26;20443;-57
2024/04/17 10:34:28;;;;;;;6.53;2.00;;;15.40;89.70;;;;;;5489406;26;20451;-57
2024/04/17 10:36:58;;;;;;;4.10;1.80;;;15.30;89.20;;;;;;5489333;26;20463;-57
2024/04/17 10:39:28;;;;;;;5.70;1.90;;;15.10;88.90;;;;;;5489280;26;20528;-57
2024/04/17 10:41:54;;;;;;;7.20;1.70;;;14.90;88.50;;;;;;5489032;26;20452;-57
2024/04/17 10:44:23;;;;;;;2.67;1.53;;;14.70;88.10;;;;;;5489362;26;21138;-57
2024/04/17 10:46:59;;;;;;;4.60;2.10;;;14.60;88.40;;;;;;5489076;26;20989;-58
2024/04/17 10:49:30;;;;;;;1.60;1.40;;;14.60;89.90;;;;;;5509831;26;20525;-57
2024/04/17 10:51:56;;;;;;;3.73;1.50;;;14.60;90.20;;;;;;5525630;25;21047;-57
2024/04/17 10:54:24;;;;;;;4.47;1.70;;;14.90;90.60;;;;;;5525333;25;20455;-57
2024/04/17 10:56:50;;;;;;;4.40;1.60;;;16.00;90.70;;;;;;5526128;25;20225;-58
2024/04/17 10:59:19;;;;;;;3.70;2.67;;;17.40;88.40;;;;;;5529476;25;20481;-58
2024/04/17 11:01:45;;;;;;;5.77;1.90;;;18.90;78.50;;;;;;5529780;25;20971;-57
2024/04/17 11:04:13;;;;;;;5.43;2.20;;;20.20;71.20;;;;;;5529386;25;20450;-57
2024/04/17 11:06:42;;;;;;;6.57;1.93;;;21.30;60.40;;;;;;5529386;25;20313;-57
2024/04/17 11:09:12;;;;;;;3.13;1.60;;;21.90;54.50;;;;;;5529161;25;20525;-57
2024/04/17 11:11:38;;;;;;;4.07;1.77;;;22.30;53.80;;;;;;5529485;25;20442;-58
2024/04/17 11:14:15;;;;;;;5.20;1.70;;;22.80;50.90;;;;;;5529275;25;21020;-58
2024/04/17 11:16:42;;;;;;;3.43;1.60;;;23.20;49.70;;;;;;5529333;25;20240;-58
2024/04/17 11:19:11;;;;;;;6.60;2.10;;;23.70;47.00;;;;;;5529068;25;20819;-58
2024/04/17 11:21:37;;;;;;;4.43;2.03;;;23.80;42.30;;;;;;5529072;25;20442;-58
2024/04/17 11:24:08;;;;;;;5.10;2.00;;;24.10;43.70;;;;;;5529217;25;20501;-58
2024/04/17 11:26:34;;;;;;;4.50;1.90;;;24.60;43.40;;;;;;5529031;25;20450;-58
2024/04/17 11:29:03;;;;;;;6.90;2.20;;;25.10;43.60;;;;;;5528989;25;20450;-57
2024/04/17 11:31:29;;;;;;;7.83;1.70;;;25.40;40.50;;;;;;5529120;25;20217;-56
2024/04/17 11:33:57;;;;;;;7.40;2.50;;;24.80;39.20;;;;;;5529018;25;20518;-57
2024/04/17 11:36:23;;;;;;;3.13;1.00;;;23.90;40.40;;;;;;5528990;25;20450;-58
2024/04/17 11:38:53;;;;;;;6.07;1.63;;;22.20;43.70;;;;;;5528917;25;20458;-57
2024/04/17 11:41:22;;;;;;;3.13;1.50;;;20.30;47.50;;;;;;5529036;26;20553;-58
2024/04/17 11:43:50;;;;;;;4.00;1.80;;;18.50;51.90;;;;;;5528806;25;20450;-58
2024/04/17 11:46:17;;;;;;;3.07;1.60;;;17.20;55.50;;;;;;5529075;25;20921;-58
2024/04/17 11:48:46;;;;;;;3.13;1.30;;;16.00;58.90;;;;;;5528621;25;20498;-57
2024/04/17 11:51:12;;;;;;;3.67;1.23;;;15.30;63.00;;;;;;5528703;25;20499;-58
2024/04/17 11:53:40;;;;;;;5.20;1.17;;;15.10;69.10;;;;;;5528809;25;20443;-58
2024/04/17 11:56:06;;;;;;;2.10;1.50;;;16.10;72.20;;;;;;5528663;25;20290;-58
2024/04/17 11:58:38;;;;;;;1.10;0.90;;;16.90;66.70;;;;;;5528614;25;20521;-57
2024/04/17 12:01:04;;;;;;;1.73;1.20;;;17.50;61.10;;;;;;5528612;25;20466;-58
2024/04/17 12:03:33;;;;;;;3.63;1.43;;;17.80;59.10;;;;;;5528577;25;20845;-57
2024/04/17 12:05:59;;;;;;;3.60;1.30;;;17.50;58.00;;;;;;5528513;25;20486;-57
2024/04/17 12:08:27;;;;;;;3.33;1.40;;;17.00;59.30;;;;;;5527525;25;20450;-57
2024/04/17 12:10:53;;;;;;;4.73;1.37;;;16.30;60.40;;;;;;5528207;25;20275;-57
2024/04/17 12:13:21;;;;;;;3.20;1.67;;;15.70;61.90;;;;;;5528531;25;20498;-57
2024/04/17 12:15:50;;;;;;;3.03;1.43;;;15.20;65.20;;;;;;5528391;25;20221;-57
2024/04/17 12:18:18;;;;;;;3.13;1.83;;;14.80;66.50;;;;;;5528363;25;20484;-57
2024/04/17 12:20:44;;;;;;;7.00;1.67;;;14.30;68.60;;;;;;5528262;25;20498;-57
2024/04/17 12:23:18;;;;;;;4.30;1.43;;;14.10;71.50;;;;;;5528354;25;20450;-57
2024/04/17 12:28:31;;;;;;;6.87;2.23;;;15.10;73.10;;;;;;5530969;26;20474;-57
2024/04/17 12:31:02;;;;;;;3.67;1.43;;;15.60;70.80;;;;;;5528140;25;20477;-57
2024/04/17 12:33:32;;;;;;;1.47;1.20;;;15.80;65.70;;;;;;5528268;25;20453;-57
2024/04/17 12:36:00;;;;;;;4.40;1.40;;;16.00;67.00;;;;;;5528101;25;20931;-57
2024/04/17 12:38:29;;;;;;;2.50;2.07;;;16.30;68.30;;;;;;5528105;25;20552;-58
2024/04/17 12:40:58;;;;;;;3.57;1.10;;;16.30;66.30;;;;;;5527985;25;20798;-58
2024/04/17 12:43:26;;;;;;;3.90;1.27;;;16.10;66.50;;;;;;5527925;25;20453;-58
2024/04/17 12:45:55;;;;;;;2.10;1.20;;;15.80;67.10;;;;;;5527948;25;20896;-58
2024/04/17 12:48:26;;;;;;;2.47;1.00;;;15.50;68.00;;;;;;5527810;25;20454;-58
2024/04/17 12:50:54;;;;;;;2.60;1.00;;;15.30;69.00;;;;;;5527815;25;20506;-58
2024/04/17 12:53:23;;;;;;;1.63;1.10;;;15.20;70.20;;;;;;5527856;25;20548;-58
2024/04/17 12:55:54;;;;;;;3.67;1.00;;;15.00;70.40;;;;;;5527880;25;20450;-58
2024/04/17 12:58:23;;;;;;;2.00;1.20;;;14.90;71.20;;;;;;5527955;25;20438;-58
2024/04/17 13:00:50;;;;;;;3.03;0.90;;;14.70;71.30;;;;;;5527714;25;20498;-58
2024/04/17 13:03:19;;;;;;;2.67;1.00;;;14.60;71.90;;;;;;5527799;25;21030;-58